createdAt,value
2022-09-10T00:00:32.138Z,4.40
2022-09-10T00:02:59.940Z,6.97
2022-09-10T00:05:28.158Z,4.87
2022-09-10T00:07:57.298Z,5.13
2022-09-10T00:10:26.272Z,5.23
2022-09-10T00:12:55.681Z,4.57
2022-09-10T00:15:23.504Z,6.50
2022-09-10T00:17:51.194Z,4.97
2022-09-10T00:20:19.031Z,5.43
2022-09-10T00:22:48.412Z,4.87
2022-09-10T00:25:17.731Z,5.63
2022-09-10T00:27:45.425Z,5.07
2022-09-10T00:30:14.194Z,5.53
2022-09-10T00:32:41.901Z,6.10
2022-09-10T00:35:09.923Z,7.17
2022-09-10T00:37:37.732Z,5.07
2022-09-10T00:40:06.486Z,5.67
2022-09-10T00:42:35.602Z,4.73
2022-09-10T00:45:05.536Z,5.20
2022-09-10T00:47:36.241Z,5.23
2022-09-10T00:50:08.607Z,7.63
2022-09-10T00:52:39.989Z,7.17
2022-09-10T00:55:09.743Z,5.30
2022-09-10T00:57:39.071Z,5.73
2022-09-10T01:00:10.857Z,4.70
2022-09-10T01:02:39.265Z,4.93
2022-09-10T01:05:08.951Z,4.97
2022-09-10T01:07:37.768Z,5.23
2022-09-10T01:10:11.503Z,6.57
2022-09-10T01:12:53.528Z,5.30
2022-09-10T01:15:27.722Z,5.00
2022-09-10T01:18:07.486Z,5.27
2022-09-10T01:20:53.162Z,4.93
2022-09-10T01:24:00.645Z,5.77
2022-09-10T01:26:58.355Z,6.07
2022-09-10T01:29:31.374Z,4.87
2022-09-10T01:32:06.749Z,4.90
2022-09-10T01:34:41.713Z,4.87
2022-09-10T01:37:14.464Z,5.53
2022-09-10T01:39:43.116Z,5.27
2022-09-10T01:42:10.952Z,4.70
2022-09-10T01:44:45.140Z,6.00
2022-09-10T01:47:31.388Z,5.13
2022-09-10T01:50:16.888Z,5.07
2022-09-10T01:53:00.493Z,6.67
2022-09-10T01:55:36.357Z,7.17
2022-09-10T01:58:18.134Z,5.60
2022-09-10T02:01:02.178Z,6.00
2022-09-10T02:03:30.933Z,5.20
2022-09-10T02:06:00.085Z,5.03
2022-09-10T02:08:31.947Z,5.03
2022-09-10T02:11:03.817Z,6.70
2022-09-10T02:13:36.542Z,4.67
2022-09-10T02:16:22.358Z,6.00
2022-09-10T02:18:50.588Z,4.57
2022-09-10T02:21:18.976Z,5.63
2022-09-10T02:23:51.060Z,6.33
2022-09-10T02:26:18.808Z,6.57
2022-09-10T02:28:49.514Z,7.33
2022-09-10T02:31:19.517Z,6.53
2022-09-10T02:33:47.366Z,6.30
2022-09-10T02:36:15.180Z,6.37
2022-09-10T02:38:42.990Z,6.17
2022-09-10T02:41:10.975Z,5.87
2022-09-10T02:43:38.994Z,5.77
2022-09-10T02:46:07.886Z,7.53
2022-09-10T02:48:39.875Z,5.17
2022-09-10T02:51:09.199Z,5.73
2022-09-10T02:53:38.325Z,6.20
2022-09-10T02:56:08.588Z,6.07
2022-09-10T02:58:37.579Z,6.80
2022-09-10T03:01:08.526Z,6.37
2022-09-10T03:03:36.858Z,7.33
2022-09-10T03:06:07.245Z,7.93
2022-09-10T03:08:35.448Z,6.10
2022-09-10T03:11:04.361Z,6.00
2022-09-10T03:13:34.886Z,6.67
2022-09-10T03:16:04.174Z,6.13
2022-09-10T03:18:35.271Z,6.43
2022-09-10T03:21:13.058Z,5.97
2022-09-10T03:23:41.152Z,6.40
2022-09-10T03:26:09.618Z,6.80
2022-09-10T03:28:38.541Z,10.70
2022-09-10T03:31:09.064Z,7.90
2022-09-10T03:33:42.748Z,6.20
2022-09-10T03:36:13.438Z,7.73
2022-09-10T03:38:43.189Z,6.47
2022-09-10T03:41:12.091Z,6.83
2022-09-10T03:43:40.113Z,6.53
2022-09-10T03:46:12.005Z,7.47
2022-09-10T03:48:43.423Z,6.27
2022-09-10T03:51:12.897Z,5.83
2022-09-10T03:53:40.899Z,5.93
2022-09-10T03:56:10.446Z,6.03
2022-09-10T03:58:38.698Z,5.47
2022-09-10T04:01:06.880Z,6.10
2022-09-10T04:03:38.017Z,8.83
2022-09-10T04:06:06.193Z,6.60
2022-09-10T04:08:36.348Z,5.80
2022-09-10T04:11:07.920Z,5.73
2022-09-10T04:13:35.740Z,7.03
2022-09-10T04:16:04.388Z,5.60
2022-09-10T04:18:34.993Z,5.57
2022-09-10T04:21:04.258Z,5.30
2022-09-10T04:23:32.741Z,8.23
2022-09-10T04:26:12.444Z,5.87
2022-09-10T04:28:40.709Z,5.77
2022-09-10T04:31:08.986Z,6.60
2022-09-10T04:33:36.924Z,7.13
2022-09-10T04:36:06.911Z,6.30
2022-09-10T04:38:40.588Z,7.07
2022-09-10T04:41:10.499Z,6.33
2022-09-10T04:43:38.434Z,5.83
2022-09-10T04:46:07.709Z,8.83
2022-09-10T04:48:38.689Z,6.50
2022-09-10T04:51:16.819Z,6.53
2022-09-10T04:53:47.981Z,8.50
2022-09-10T04:56:18.194Z,7.27
2022-09-10T04:58:46.972Z,6.43
2022-09-10T05:01:14.984Z,6.53
2022-09-10T05:03:45.139Z,6.43
2022-09-10T05:06:13.502Z,7.93
2022-09-10T05:08:41.713Z,10.53
2022-09-10T05:11:11.482Z,8.50
2022-09-10T05:13:41.459Z,6.60
2022-09-10T05:16:09.407Z,6.83
2022-09-10T05:18:37.200Z,7.23
2022-09-10T05:21:06.147Z,8.77
2022-09-10T05:23:35.196Z,8.13
2022-09-10T05:26:03.133Z,7.13
2022-09-10T05:28:31.536Z,9.43
2022-09-10T05:31:00.854Z,7.00
2022-09-10T05:33:30.916Z,6.87
2022-09-10T05:36:00.281Z,6.17
2022-09-10T05:38:28.406Z,6.80
2022-09-10T05:40:57.621Z,8.23
2022-09-10T05:43:25.490Z,6.70
2022-09-10T05:45:53.353Z,6.30
2022-09-10T05:48:22.850Z,8.10
2022-09-10T05:50:50.819Z,6.00
2022-09-10T05:53:19.017Z,7.70
2022-09-10T05:55:47.011Z,6.87
2022-09-10T05:58:16.790Z,6.40
2022-09-10T06:00:44.737Z,6.70
2022-09-10T06:03:14.119Z,7.17
2022-09-10T06:05:51.159Z,6.30
2022-09-10T06:08:23.419Z,6.07
2022-09-10T06:10:57.236Z,6.40
2022-09-10T06:13:27.823Z,7.00
2022-09-10T06:15:56.689Z,6.50
2022-09-10T06:18:27.546Z,7.00
2022-09-10T06:21:07.857Z,7.13
2022-09-10T06:23:36.353Z,7.43
2022-09-10T06:26:05.721Z,7.53
2022-09-10T06:28:35.688Z,7.20
2022-09-10T06:31:05.495Z,5.87
2022-09-10T06:33:35.754Z,5.97
2022-09-10T06:36:06.482Z,5.43
2022-09-10T06:38:36.521Z,5.77
2022-09-10T06:41:08.780Z,6.30
2022-09-10T06:43:42.346Z,5.23
2022-09-10T06:47:02.338Z,4.83
2022-09-10T06:49:15.759Z,5.37
2022-09-10T06:51:49.994Z,6.43
2022-09-10T06:54:18.728Z,5.20
2022-09-10T06:56:47.008Z,4.80
2022-09-10T06:59:15.044Z,5.70
2022-09-10T07:01:47.334Z,4.97
2022-09-10T07:04:15.982Z,6.73
2022-09-10T07:06:45.829Z,6.43
2022-09-10T07:09:17.882Z,5.17
2022-09-10T07:11:58.286Z,5.73
2022-09-10T07:14:27.997Z,4.60
2022-09-10T07:16:57.686Z,5.43
2022-09-10T07:19:29.667Z,5.93
2022-09-10T07:21:57.829Z,5.50
2022-09-10T07:24:27.376Z,5.07
2022-09-10T07:27:10.910Z,6.20
2022-09-10T07:29:40.842Z,5.30
2022-09-10T07:32:13.861Z,4.80
2022-09-10T07:34:42.066Z,5.33
2022-09-10T07:37:11.486Z,5.00
2022-09-10T07:39:41.452Z,4.87
2022-09-10T07:42:11.537Z,6.03
2022-09-10T07:44:40.542Z,5.97
2022-09-10T07:47:08.284Z,5.00
2022-09-10T07:49:36.224Z,4.63
2022-09-10T07:52:06.207Z,5.23
2022-09-10T07:54:44.138Z,6.87
2022-09-10T07:57:12.412Z,5.77
2022-09-10T07:59:41.347Z,5.27
2022-09-10T08:02:10.703Z,5.23
2022-09-10T08:04:39.754Z,5.77
2022-09-10T08:07:11.659Z,5.43
2022-09-10T08:09:43.135Z,6.23
2022-09-10T08:12:17.604Z,5.57
2022-09-10T08:14:46.039Z,5.17
2022-09-10T08:17:14.233Z,5.93
2022-09-10T08:19:45.026Z,8.27
2022-09-10T08:22:14.119Z,5.17
2022-09-10T08:24:48.517Z,4.90
2022-09-10T08:27:18.505Z,6.53
2022-09-10T08:29:48.266Z,5.07
2022-09-10T08:32:16.004Z,7.00
2022-09-10T08:34:43.734Z,6.97
2022-09-10T08:37:13.353Z,6.67
2022-09-10T08:39:41.595Z,5.70
2022-09-10T08:42:19.115Z,5.97
2022-09-10T08:44:51.824Z,6.03
2022-09-10T08:47:34.338Z,7.70
2022-09-10T08:50:13.123Z,6.90
2022-09-10T08:52:48.674Z,8.70
2022-09-10T08:55:31.426Z,5.87
2022-09-10T08:58:06.772Z,6.33
2022-09-10T09:00:39.098Z,7.73
2022-09-10T09:03:17.232Z,6.67
2022-09-10T09:05:48.852Z,8.03
2022-09-10T09:08:21.709Z,6.17
2022-09-10T09:10:56.242Z,7.77
2022-09-10T09:13:47.785Z,8.83
2022-09-10T09:16:27.940Z,6.07
2022-09-10T09:19:06.536Z,7.07
2022-09-10T09:21:43.659Z,5.27
2022-09-10T09:24:22.219Z,5.47
2022-09-10T09:27:00.995Z,6.60
2022-09-10T09:29:38.002Z,7.30
2022-09-10T09:32:07.315Z,8.30
2022-09-10T09:34:40.233Z,7.07
2022-09-10T09:37:17.197Z,7.00
2022-09-10T09:39:52.887Z,5.83
2022-09-10T09:42:30.237Z,5.63
2022-09-10T09:45:08.377Z,6.27
2022-09-10T09:47:36.254Z,9.83
2022-09-10T09:50:04.929Z,6.47
2022-09-10T09:52:33.845Z,6.83
2022-09-10T09:55:15.569Z,6.13
2022-09-10T09:57:43.696Z,7.13
2022-09-10T10:00:37.089Z,7.60
2022-09-10T10:03:13.545Z,9.17
2022-09-10T10:05:42.339Z,6.97
2022-09-10T10:08:28.835Z,6.53
2022-09-10T10:10:56.851Z,8.23
2022-09-10T10:13:25.153Z,6.63
2022-09-10T10:15:54.516Z,6.67
2022-09-10T10:18:31.600Z,6.07
2022-09-10T10:21:22.243Z,6.17
2022-09-10T10:23:50.577Z,5.97
2022-09-10T10:26:26.113Z,6.17
2022-09-10T10:28:58.634Z,6.00
2022-09-10T10:31:35.875Z,7.00
2022-09-10T10:34:21.898Z,8.80
2022-09-10T10:36:57.122Z,8.37
2022-09-10T10:39:35.460Z,8.27
2022-09-10T10:42:12.079Z,7.87
2022-09-10T10:44:56.952Z,8.90
2022-09-10T10:47:43.167Z,7.90
2022-09-10T10:50:27.188Z,8.37
2022-09-10T10:53:12.320Z,7.23
2022-09-10T10:55:42.430Z,4.90
2022-09-10T10:58:29.849Z,5.30
2022-09-10T11:01:02.050Z,7.60
2022-09-10T11:03:39.373Z,6.43
2022-09-10T11:06:11.344Z,6.73
2022-09-10T11:08:44.653Z,7.40
2022-09-10T11:11:18.102Z,7.07
2022-09-10T11:13:51.417Z,6.70
2022-09-10T11:16:24.140Z,8.00
2022-09-10T11:18:58.038Z,8.53
2022-09-10T11:21:31.202Z,7.20
2022-09-10T11:24:04.158Z,6.93
2022-09-10T11:26:36.296Z,8.00
2022-09-10T11:29:16.904Z,9.33
2022-09-10T11:31:48.696Z,8.70
2022-09-10T11:34:22.534Z,8.70
2022-09-10T11:36:56.613Z,8.30
2022-09-10T11:39:33.015Z,9.57
2022-09-10T11:42:05.589Z,8.93
2022-09-10T11:44:44.345Z,9.00
2022-09-10T11:47:18.877Z,9.13
2022-09-10T11:49:54.867Z,8.90
2022-09-10T11:52:25.570Z,8.80
2022-09-10T11:54:55.458Z,8.00
2022-09-10T11:57:33.770Z,7.53
2022-09-10T12:00:11.817Z,7.53
2022-09-10T12:03:21.157Z,8.40
2022-09-10T12:05:59.559Z,7.17
2022-09-10T12:08:38.233Z,6.60
2022-09-10T12:11:16.374Z,6.87
2022-09-10T12:13:46.864Z,5.93
2022-09-10T12:16:22.645Z,6.00
2022-09-10T12:18:53.291Z,5.60
2022-09-10T12:21:32.372Z,6.50
2022-09-10T12:24:02.627Z,5.47
2022-09-10T12:26:30.609Z,5.93
2022-09-10T12:29:03.659Z,4.93
2022-09-10T12:32:14.421Z,4.47
2022-09-10T12:34:42.592Z,4.77
2022-09-10T12:37:28.070Z,4.70
2022-09-10T12:40:33.100Z,5.70
2022-09-10T12:43:39.537Z,5.20
2022-09-10T12:46:19.023Z,5.13
2022-09-10T12:48:48.642Z,4.37
2022-09-10T12:51:31.865Z,4.50
2022-09-10T12:54:26.957Z,4.40
2022-09-10T12:57:12.680Z,4.17
2022-09-10T13:00:17.827Z,4.70
2022-09-10T13:02:52.415Z,4.67
2022-09-10T13:05:29.302Z,4.03
2022-09-10T13:08:13.273Z,6.23
2022-09-10T13:10:45.654Z,7.00
2022-09-10T13:13:32.847Z,7.80
2022-09-10T13:16:01.660Z,6.30
2022-09-10T13:18:31.733Z,6.00
2022-09-10T13:21:00.367Z,6.40
2022-09-10T13:23:48.562Z,5.97
2022-09-10T13:26:49.555Z,5.83
2022-09-10T13:29:33.861Z,5.50
2022-09-10T13:32:06.738Z,6.33
2022-09-10T13:34:57.073Z,5.10
2022-09-10T13:37:50.442Z,3.50
2022-09-10T13:40:43.195Z,4.00
2022-09-10T13:43:28.462Z,3.70
2022-09-10T13:46:00.522Z,3.80
2022-09-10T13:48:35.051Z,4.40
2022-09-10T13:51:15.546Z,4.73
2022-09-10T13:53:49.059Z,4.37
2022-09-10T13:56:22.794Z,4.60
2022-09-10T13:58:55.206Z,5.07
2022-09-10T14:01:49.298Z,5.43
2022-09-10T14:04:26.188Z,5.97
2022-09-10T14:06:58.121Z,6.30
2022-09-10T14:09:27.317Z,6.23
2022-09-10T14:11:55.800Z,6.07
2022-09-10T14:14:29.196Z,6.10
2022-09-10T14:17:03.459Z,6.37
2022-09-10T14:19:36.580Z,5.97
2022-09-10T14:22:09.458Z,6.10
2022-09-10T14:24:49.458Z,5.73
2022-09-10T14:27:20.049Z,5.20
2022-09-10T14:29:50.271Z,6.00
2022-09-10T14:32:30.593Z,6.20
2022-09-10T14:34:59.257Z,5.67
2022-09-10T14:37:34.059Z,5.00
2022-09-10T14:40:19.045Z,4.53
2022-09-10T14:42:48.801Z,4.10
2022-09-10T14:45:41.618Z,4.70
2022-09-10T14:48:33.419Z,3.93
2022-09-10T14:51:20.430Z,4.20
2022-09-10T14:53:55.191Z,4.93
2022-09-10T14:56:26.589Z,5.07
2022-09-10T14:58:59.870Z,5.50
2022-09-10T15:01:29.495Z,4.47
2022-09-10T15:03:59.636Z,4.50
2022-09-10T15:06:27.418Z,4.70
2022-09-10T15:08:56.691Z,5.17
2022-09-10T15:11:26.936Z,4.30
2022-09-10T15:13:56.522Z,4.07
2022-09-10T15:16:24.266Z,3.50
2022-09-10T15:18:53.336Z,4.13
2022-09-10T15:21:22.186Z,4.80
2022-09-10T15:23:49.857Z,4.70
2022-09-10T15:26:18.018Z,3.37
2022-09-10T15:28:45.737Z,3.53
2022-09-10T15:31:13.506Z,4.40
2022-09-10T15:33:41.974Z,3.93
2022-09-10T15:36:11.676Z,3.50
2022-09-10T15:38:39.463Z,5.20
2022-09-10T15:41:10.471Z,3.47
2022-09-10T15:43:42.804Z,4.57
2022-09-10T15:46:11.322Z,3.73
2022-09-10T15:48:39.435Z,4.37
2022-09-10T15:51:10.005Z,4.53
2022-09-10T15:53:40.510Z,3.40
2022-09-10T15:56:09.945Z,4.13
2022-09-10T15:58:38.887Z,3.70
2022-09-10T16:01:08.434Z,4.50
2022-09-10T16:03:36.180Z,3.33
2022-09-10T16:06:05.458Z,3.50
2022-09-10T16:08:33.516Z,4.50
2022-09-10T16:11:08.544Z,3.30
2022-09-10T16:13:39.593Z,3.07
2022-09-10T16:16:10.762Z,3.80
2022-09-10T16:18:38.713Z,3.77
2022-09-10T16:21:11.483Z,4.63
2022-09-10T16:23:41.804Z,4.73
2022-09-10T16:26:15.816Z,4.10
2022-09-10T16:28:48.821Z,6.13
2022-09-10T16:31:18.898Z,4.80
2022-09-10T16:33:47.865Z,5.10
2022-09-10T16:36:17.399Z,5.90
2022-09-10T16:38:45.654Z,5.50
2022-09-10T16:41:16.210Z,4.90
2022-09-10T16:43:44.299Z,4.53
2022-09-10T16:46:13.771Z,3.90
2022-09-10T16:48:43.390Z,4.17
2022-09-10T16:51:13.760Z,6.43
2022-09-10T16:53:44.214Z,5.87
2022-09-10T16:56:15.257Z,6.70
2022-09-10T16:58:46.817Z,8.57
2022-09-10T17:01:14.978Z,9.73
2022-09-10T17:03:45.493Z,10.47
2022-09-10T17:06:15.684Z,11.37
2022-09-10T17:08:45.058Z,11.30
2022-09-10T17:11:15.601Z,15.23
2022-09-10T17:13:43.997Z,17.97
2022-09-10T17:16:17.287Z,19.03
2022-09-10T17:18:45.274Z,19.10
2022-09-10T17:21:14.282Z,18.43
2022-09-10T17:23:42.454Z,17.70
2022-09-10T17:26:11.023Z,20.37
2022-09-10T17:28:40.390Z,21.30
2022-09-10T17:31:08.521Z,21.47
2022-09-10T17:33:36.367Z,24.07
2022-09-10T17:36:05.074Z,23.20
2022-09-10T17:38:35.097Z,23.00
2022-09-10T17:41:04.973Z,23.67
2022-09-10T17:43:37.176Z,23.30
2022-09-10T17:46:07.483Z,23.83
2022-09-10T17:48:35.520Z,22.60
2022-09-10T17:51:03.637Z,22.90
2022-09-10T17:53:31.760Z,26.00
2022-09-10T17:56:03.747Z,23.13
2022-09-10T17:58:32.439Z,26.13
2022-09-10T18:01:02.113Z,23.37
2022-09-10T18:03:31.512Z,25.37
2022-09-10T18:06:04.072Z,25.10
2022-09-10T18:08:33.152Z,23.13
2022-09-10T18:11:05.638Z,24.97
2022-09-10T18:13:34.148Z,25.77
2022-09-10T18:16:06.533Z,29.37
2022-09-10T18:18:36.309Z,27.43
2022-09-10T18:21:19.840Z,29.67
2022-09-10T18:23:51.450Z,31.37
2022-09-10T18:26:20.722Z,29.57
2022-09-10T18:28:54.921Z,30.37
2022-09-10T18:31:24.294Z,31.60
2022-09-10T18:33:53.590Z,32.83
2022-09-10T18:36:21.742Z,32.47
2022-09-10T18:38:49.573Z,33.87
2022-09-10T18:41:20.852Z,31.63
2022-09-10T18:43:49.740Z,34.23
2022-09-10T18:46:19.514Z,31.60
2022-09-10T18:48:48.024Z,31.27
2022-09-10T18:51:18.979Z,31.67
2022-09-10T18:53:47.721Z,33.47
2022-09-10T18:56:18.944Z,33.03
2022-09-10T18:58:49.814Z,32.50
2022-09-10T19:01:18.706Z,32.27
2022-09-10T19:03:48.750Z,36.33
2022-09-10T19:06:19.503Z,33.33
2022-09-10T19:08:48.685Z,34.70
2022-09-10T19:11:18.833Z,34.80
2022-09-10T19:13:50.074Z,38.73
2022-09-10T19:16:19.041Z,39.60
2022-09-10T19:18:50.840Z,36.27
2022-09-10T19:21:20.295Z,34.23
2022-09-10T19:23:49.431Z,33.80
2022-09-10T19:26:17.421Z,38.73
2022-09-10T19:28:45.703Z,38.40
2022-09-10T19:31:15.452Z,35.37
2022-09-10T19:33:43.262Z,38.23
2022-09-10T19:36:14.197Z,39.00
2022-09-10T19:38:43.422Z,36.63
2022-09-10T19:41:13.002Z,38.37
2022-09-10T19:43:41.914Z,38.00
2022-09-10T19:46:11.516Z,38.07
2022-09-10T19:48:40.440Z,40.00
2022-09-10T19:51:10.498Z,38.63
2022-09-10T19:53:38.442Z,40.07
2022-09-10T19:56:09.505Z,38.63
2022-09-10T19:58:38.058Z,42.10
2022-09-10T20:01:09.432Z,41.27
2022-09-10T20:03:37.845Z,41.93
2022-09-10T20:06:05.913Z,40.47
2022-09-10T20:08:34.939Z,42.00
2022-09-10T20:11:05.456Z,41.90
2022-09-10T20:13:34.595Z,45.20
2022-09-10T20:16:03.131Z,43.07
2022-09-10T20:18:32.191Z,43.43
2022-09-10T20:21:11.587Z,43.40
2022-09-10T20:23:39.629Z,42.37
2022-09-10T20:26:12.421Z,39.40
2022-09-10T20:28:41.633Z,41.23
2022-09-10T20:31:11.547Z,40.60
2022-09-10T20:33:42.200Z,41.93
2022-09-10T20:36:12.254Z,43.73
2022-09-10T20:38:40.473Z,46.27
2022-09-10T20:41:08.644Z,45.70
2022-09-10T20:43:37.466Z,44.07
2022-09-10T20:46:06.953Z,44.53
2022-09-10T20:48:34.692Z,42.73
2022-09-10T20:51:02.440Z,49.23
2022-09-10T20:53:30.226Z,44.97
2022-09-10T20:56:06.375Z,47.43
2022-09-10T20:58:35.284Z,43.07
2022-09-10T21:01:09.600Z,44.60
2022-09-10T21:03:38.714Z,44.67
2022-09-10T21:06:07.400Z,46.40
2022-09-10T21:08:35.806Z,45.73
2022-09-10T21:11:05.473Z,48.40
2022-09-10T21:13:35.902Z,46.00
2022-09-10T21:16:13.463Z,53.20
2022-09-10T21:18:42.425Z,49.23
2022-09-10T21:21:11.958Z,50.50
2022-09-10T21:23:44.224Z,51.97
2022-09-10T21:26:12.830Z,51.23
2022-09-10T21:28:41.202Z,48.40
2022-09-10T21:31:12.210Z,45.53
2022-09-10T21:33:40.826Z,49.93
2022-09-10T21:36:11.555Z,49.80
2022-09-10T21:38:40.538Z,51.33
2022-09-10T21:41:12.397Z,52.90
2022-09-10T21:43:43.889Z,53.70
2022-09-10T21:46:14.390Z,52.43
2022-09-10T21:48:42.983Z,53.70
2022-09-10T21:51:13.596Z,55.33
2022-09-10T21:53:42.851Z,54.77
2022-09-10T21:56:13.362Z,55.63
2022-09-10T21:58:42.377Z,52.07
2022-09-10T22:01:13.295Z,51.90
2022-09-10T22:03:41.765Z,56.23
2022-09-10T22:06:11.189Z,56.57
2022-09-10T22:08:41.510Z,52.63
2022-09-10T22:11:14.145Z,57.37
2022-09-10T22:13:42.290Z,60.00
2022-09-10T22:16:12.119Z,51.83
2022-09-10T22:18:41.453Z,56.23
2022-09-10T22:21:10.138Z,54.10
2022-09-10T22:23:39.544Z,57.57
2022-09-10T22:26:09.459Z,53.93
2022-09-10T22:28:38.377Z,56.30
2022-09-10T22:31:08.445Z,53.23
2022-09-10T22:33:36.805Z,54.33
2022-09-10T22:36:14.570Z,54.83
2022-09-10T22:38:43.440Z,56.73
2022-09-10T22:41:14.296Z,53.83
2022-09-10T22:43:42.686Z,58.67
2022-09-10T22:46:11.524Z,58.97
2022-09-10T22:48:41.511Z,55.27
2022-09-10T22:51:11.214Z,59.33
2022-09-10T22:53:41.855Z,55.17
2022-09-10T22:56:10.738Z,56.90
2022-09-10T22:58:39.514Z,60.77
2022-09-10T23:01:09.132Z,57.20
2022-09-10T23:03:37.720Z,55.97
2022-09-10T23:06:06.965Z,56.37
2022-09-10T23:08:35.784Z,54.97
2022-09-10T23:11:15.110Z,52.47
2022-09-10T23:13:43.354Z,53.13
2022-09-10T23:16:13.061Z,49.00
2022-09-10T23:18:41.976Z,49.03
2022-09-10T23:21:10.678Z,48.20
2022-09-10T23:23:38.446Z,50.20
2022-09-10T23:26:08.730Z,47.50
2022-09-10T23:28:38.306Z,45.43
2022-09-10T23:31:13.160Z,46.20
2022-09-10T23:33:45.398Z,43.33
2022-09-10T23:36:14.131Z,50.50
2022-09-10T23:38:43.514Z,47.17
2022-09-10T23:41:12.674Z,49.80
2022-09-10T23:43:41.846Z,45.53
2022-09-10T23:46:10.836Z,40.87
2022-09-10T23:48:39.020Z,42.23
2022-09-10T23:51:07.548Z,39.67
2022-09-10T23:53:35.452Z,39.30
2022-09-10T23:56:04.027Z,40.10
2022-09-10T23:58:31.775Z,38.90
